Finley, Australia
Current Conditions -  °F | °C
As of 8:00 AM on Thursday 23 Oct 2014 (Local Time) from YMAY Reporting Station
Clear Clear  
Wind Chill: 66°   Ceiling: Unl
Heat Index: 66°   Visibility: 6mi
Dew Point: 57°   Wind: 3mph
Humidity: 73%   Direction: 140°SE
Pressure: 30.03"   Gusts: NA
Location:  35.65°S, 145.58°E
Report Text: YMAY 222100Z AUTO 14003KT 9999 // NCD 19/14 Q1017
Loading
Personal Weather Stations






























Interactive Weather Map
Tropical Storm Tracking
New forecast layout! Learn more

10-Day Weather Forecast

Advertisements
Track Severe Weather on mobile